sensor_id;sensor_type;location;lat;lon;timestamp;P1;durP1;ratioP1;P2;durP2;ratioP2
16015;SDS011;8112;53.592;10.184;2022-08-07T00:03:30;8.27;;;6.80;;
16015;SDS011;8112;53.592;10.184;2022-08-07T00:08:32;9.57;;;7.37;;
16015;SDS011;8112;53.592;10.184;2022-08-07T00:13:36;8.20;;;7.27;;
16015;SDS011;8112;53.592;10.184;2022-08-07T00:18:39;7.87;;;6.90;;
16015;SDS011;8112;53.592;10.184;2022-08-07T00:23:43;8.03;;;6.70;;
16015;SDS011;8112;53.592;10.184;2022-08-07T00:28:44;8.07;;;6.80;;
16015;SDS011;8112;53.592;10.184;2022-08-07T00:33:47;7.27;;;6.47;;
16015;SDS011;8112;53.592;10.184;2022-08-07T00:38:49;8.03;;;6.73;;
16015;SDS011;8112;53.592;10.184;2022-08-07T00:43:51;7.47;;;6.67;;
16015;SDS011;8112;53.592;10.184;2022-08-07T00:49:03;8.90;;;6.93;;
16015;SDS011;8112;53.592;10.184;2022-08-07T00:54:04;8.20;;;7.00;;
16015;SDS011;8112;53.592;10.184;2022-08-07T00:59:07;10.23;;;7.70;;
16015;SDS011;8112;53.592;10.184;2022-08-07T01:04:10;7.30;;;6.47;;
16015;SDS011;8112;53.592;10.184;2022-08-07T01:09:12;7.03;;;6.33;;
16015;SDS011;8112;53.592;10.184;2022-08-07T01:14:14;7.47;;;6.77;;
16015;SDS011;8112;53.592;10.184;2022-08-07T01:19:18;8.43;;;7.20;;
16015;SDS011;8112;53.592;10.184;2022-08-07T01:24:25;11.67;;;6.50;;
16015;SDS011;8112;53.592;10.184;2022-08-07T01:29:29;7.60;;;6.53;;
16015;SDS011;8112;53.592;10.184;2022-08-07T01:34:36;8.13;;;6.73;;
16015;SDS011;8112;53.592;10.184;2022-08-07T01:39:46;7.53;;;6.73;;
16015;SDS011;8112;53.592;10.184;2022-08-07T01:44:56;8.87;;;7.17;;
16015;SDS011;8112;53.592;10.184;2022-08-07T01:50:02;7.50;;;6.47;;
16015;SDS011;8112;53.592;10.184;2022-08-07T01:55:09;8.33;;;6.00;;
16015;SDS011;8112;53.592;10.184;2022-08-07T02:00:14;6.80;;;6.10;;
16015;SDS011;8112;53.592;10.184;2022-08-07T02:05:20;8.07;;;6.30;;
16015;SDS011;8112;53.592;10.184;2022-08-07T02:10:36;7.93;;;6.50;;
16015;SDS011;8112;53.592;10.184;2022-08-07T02:15:48;9.10;;;6.83;;
16015;SDS011;8112;53.592;10.184;2022-08-07T02:20:54;7.97;;;6.50;;
16015;SDS011;8112;53.592;10.184;2022-08-07T02:26:02;7.70;;;6.90;;
16015;SDS011;8112;53.592;10.184;2022-08-07T02:31:07;9.27;;;6.90;;
16015;SDS011;8112;53.592;10.184;2022-08-07T02:36:11;7.90;;;6.90;;
16015;SDS011;8112;53.592;10.184;2022-08-07T02:41:15;8.30;;;7.00;;
16015;SDS011;8112;53.592;10.184;2022-08-07T02:46:32;8.07;;;6.00;;
16015;SDS011;8112;53.592;10.184;2022-08-07T02:51:36;10.37;;;7.87;;
16015;SDS011;8112;53.592;10.184;2022-08-07T02:56:40;7.17;;;6.27;;
16015;SDS011;8112;53.592;10.184;2022-08-07T03:01:44;8.37;;;7.20;;
16015;SDS011;8112;53.592;10.184;2022-08-07T03:06:47;8.97;;;6.80;;
16015;SDS011;8112;53.592;10.184;2022-08-07T03:11:52;8.37;;;6.20;;
16015;SDS011;8112;53.592;10.184;2022-08-07T03:16:55;8.90;;;6.50;;
16015;SDS011;8112;53.592;10.184;2022-08-07T03:21:58;7.43;;;6.63;;
16015;SDS011;8112;53.592;10.184;2022-08-07T03:27:03;8.53;;;6.60;;
16015;SDS011;8112;53.592;10.184;2022-08-07T03:32:16;7.33;;;5.83;;
16015;SDS011;8112;53.592;10.184;2022-08-07T03:37:23;6.87;;;6.17;;
16015;SDS011;8112;53.592;10.184;2022-08-07T03:42:28;6.90;;;6.00;;
16015;SDS011;8112;53.592;10.184;2022-08-07T03:47:39;6.87;;;6.10;;
16015;SDS011;8112;53.592;10.184;2022-08-07T03:52:53;8.27;;;6.63;;
16015;SDS011;8112;53.592;10.184;2022-08-07T03:57:58;6.60;;;5.93;;
16015;SDS011;8112;53.592;10.184;2022-08-07T04:03:06;7.50;;;6.43;;
16015;SDS011;8112;53.592;10.184;2022-08-07T04:08:14;6.97;;;6.20;;
16015;SDS011;8112;53.592;10.184;2022-08-07T04:13:31;10.33;;;5.90;;
16015;SDS011;8112;53.592;10.184;2022-08-07T04:18:36;7.87;;;6.47;;
16015;SDS011;8112;53.592;10.184;2022-08-07T04:23:38;7.87;;;6.40;;
16015;SDS011;8112;53.592;10.184;2022-08-07T04:28:42;7.60;;;5.97;;
16015;SDS011;8112;53.592;10.184;2022-08-07T04:33:44;8.93;;;7.20;;
16015;SDS011;8112;53.592;10.184;2022-08-07T04:38:47;7.17;;;6.00;;
16015;SDS011;8112;53.592;10.184;2022-08-07T04:43:54;8.33;;;7.23;;
16015;SDS011;8112;53.592;10.184;2022-08-07T04:48:59;7.27;;;6.53;;
16015;SDS011;8112;53.592;10.184;2022-08-07T04:54:07;7.47;;;6.40;;
16015;SDS011;8112;53.592;10.184;2022-08-07T04:59:25;8.43;;;7.07;;
16015;SDS011;8112;53.592;10.184;2022-08-07T05:04:37;9.27;;;7.50;;
16015;SDS011;8112;53.592;10.184;2022-08-07T05:09:48;8.20;;;7.17;;
16015;SDS011;8112;53.592;10.184;2022-08-07T05:14:59;9.60;;;7.50;;
16015;SDS011;8112;53.592;10.184;2022-08-07T05:20:17;10.30;;;7.90;;
16015;SDS011;8112;53.592;10.184;2022-08-07T05:25:25;12.37;;;9.77;;
16015;SDS011;8112;53.592;10.184;2022-08-07T05:30:33;13.37;;;10.37;;
16015;SDS011;8112;53.592;10.184;2022-08-07T05:35:37;12.17;;;9.80;;
16015;SDS011;8112;53.592;10.184;2022-08-07T05:40:41;11.97;;;9.83;;
16015;SDS011;8112;53.592;10.184;2022-08-07T05:45:44;13.63;;;10.17;;
16015;SDS011;8112;53.592;10.184;2022-08-07T05:50:50;11.83;;;9.77;;
16015;SDS011;8112;53.592;10.184;2022-08-07T05:55:54;12.13;;;10.00;;
16015;SDS011;8112;53.592;10.184;2022-08-07T06:00:59;11.33;;;9.27;;
16015;SDS011;8112;53.592;10.184;2022-08-07T06:06:01;13.27;;;9.57;;
16015;SDS011;8112;53.592;10.184;2022-08-07T06:11:04;12.23;;;9.20;;
16015;SDS011;8112;53.592;10.184;2022-08-07T06:16:08;14.50;;;9.03;;
16015;SDS011;8112;53.592;10.184;2022-08-07T06:21:11;12.97;;;8.20;;
16015;SDS011;8112;53.592;10.184;2022-08-07T06:26:14;8.83;;;7.47;;
16015;SDS011;8112;53.592;10.184;2022-08-07T06:31:18;8.23;;;6.87;;
16015;SDS011;8112;53.592;10.184;2022-08-07T06:36:20;7.17;;;6.47;;
16015;SDS011;8112;53.592;10.184;2022-08-07T06:41:27;8.03;;;5.90;;
16015;SDS011;8112;53.592;10.184;2022-08-07T06:46:34;8.30;;;5.87;;
16015;SDS011;8112;53.592;10.184;2022-08-07T06:51:36;6.07;;;5.47;;
16015;SDS011;8112;53.592;10.184;2022-08-07T06:56:43;7.37;;;5.47;;
16015;SDS011;8112;53.592;10.184;2022-08-07T07:01:55;8.10;;;5.07;;
16015;SDS011;8112;53.592;10.184;2022-08-07T07:07:00;8.53;;;5.73;;
16015;SDS011;8112;53.592;10.184;2022-08-07T07:12:21;6.27;;;5.07;;
16015;SDS011;8112;53.592;10.184;2022-08-07T07:17:33;7.23;;;5.10;;
16015;SDS011;8112;53.592;10.184;2022-08-07T07:22:59;4.63;;;4.13;;
16015;SDS011;8112;53.592;10.184;2022-08-07T07:28:04;8.73;;;4.10;;
16015;SDS011;8112;53.592;10.184;2022-08-07T07:33:13;5.93;;;4.20;;
16015;SDS011;8112;53.592;10.184;2022-08-07T07:38:23;4.83;;;3.60;;
16015;SDS011;8112;53.592;10.184;2022-08-07T07:43:25;4.23;;;3.00;;
16015;SDS011;8112;53.592;10.184;2022-08-07T07:48:29;3.70;;;3.13;;
16015;SDS011;8112;53.592;10.184;2022-08-07T07:53:32;4.40;;;3.40;;
16015;SDS011;8112;53.592;10.184;2022-08-07T07:58:37;4.27;;;3.43;;
16015;SDS011;8112;53.592;10.184;2022-08-07T08:03:41;3.80;;;3.50;;
16015;SDS011;8112;53.592;10.184;2022-08-07T08:08:43;4.10;;;3.40;;
16015;SDS011;8112;53.592;10.184;2022-08-07T08:13:47;4.40;;;3.47;;
16015;SDS011;8112;53.592;10.184;2022-08-07T08:18:51;3.77;;;2.77;;
16015;SDS011;8112;53.592;10.184;2022-08-07T08:23:56;7.20;;;3.90;;
16015;SDS011;8112;53.592;10.184;2022-08-07T08:29:16;5.03;;;4.17;;
16015;SDS011;8112;53.592;10.184;2022-08-07T08:34:21;5.00;;;3.77;;
16015;SDS011;8112;53.592;10.184;2022-08-07T08:39:25;5.40;;;3.97;;
16015;SDS011;8112;53.592;10.184;2022-08-07T08:44:29;3.50;;;2.97;;
16015;SDS011;8112;53.592;10.184;2022-08-07T08:49:41;5.27;;;3.97;;
16015;SDS011;8112;53.592;10.184;2022-08-07T08:54:52;3.83;;;3.33;;
16015;SDS011;8112;53.592;10.184;2022-08-07T09:00:00;4.80;;;3.40;;
16015;SDS011;8112;53.592;10.184;2022-08-07T09:05:11;6.97;;;4.00;;
16015;SDS011;8112;53.592;10.184;2022-08-07T09:10:28;5.43;;;3.90;;
16015;SDS011;8112;53.592;10.184;2022-08-07T09:15:36;3.87;;;3.00;;
16015;SDS011;8112;53.592;10.184;2022-08-07T09:20:50;3.37;;;3.07;;
16015;SDS011;8112;53.592;10.184;2022-08-07T09:26:13;4.93;;;3.60;;
16015;SDS011;8112;53.592;10.184;2022-08-07T09:31:24;5.03;;;3.37;;
16015;SDS011;8112;53.592;10.184;2022-08-07T09:36:38;4.20;;;3.63;;
16015;SDS011;8112;53.592;10.184;2022-08-07T09:41:50;4.03;;;3.60;;
16015;SDS011;8112;53.592;10.184;2022-08-07T09:47:02;4.67;;;4.00;;
16015;SDS011;8112;53.592;10.184;2022-08-07T09:52:16;4.57;;;3.50;;
16015;SDS011;8112;53.592;10.184;2022-08-07T10:03:19;4.80;;;3.57;;
16015;SDS011;8112;53.592;10.184;2022-08-07T10:08:55;4.53;;;3.90;;
16015;SDS011;8112;53.592;10.184;2022-08-07T10:14:19;4.83;;;3.73;;
16015;SDS011;8112;53.592;10.184;2022-08-07T10:19:34;6.30;;;3.57;;
16015;SDS011;8112;53.592;10.184;2022-08-07T10:24:55;4.00;;;3.60;;
16015;SDS011;8112;53.592;10.184;2022-08-07T10:30:10;4.00;;;3.47;;
16015;SDS011;8112;53.592;10.184;2022-08-07T10:35:18;4.03;;;3.60;;
16015;SDS011;8112;53.592;10.184;2022-08-07T10:40:30;4.73;;;3.67;;
16015;SDS011;8112;53.592;10.184;2022-08-07T10:45:38;4.05;;;3.30;;
16015;SDS011;8112;53.592;10.184;2022-08-07T10:50:44;4.40;;;2.72;;
16015;SDS011;8112;53.592;10.184;2022-08-07T10:55:52;4.18;;;3.50;;
16015;SDS011;8112;53.592;10.184;2022-08-07T11:01:10;5.13;;;3.10;;
16015;SDS011;8112;53.592;10.184;2022-08-07T11:06:22;5.13;;;3.13;;
16015;SDS011;8112;53.592;10.184;2022-08-07T11:11:31;3.35;;;2.88;;
16015;SDS011;8112;53.592;10.184;2022-08-07T11:16:38;3.83;;;2.88;;
16015;SDS011;8112;53.592;10.184;2022-08-07T11:21:49;3.00;;;2.75;;
16015;SDS011;8112;53.592;10.184;2022-08-07T11:27:01;3.35;;;2.85;;
16015;SDS011;8112;53.592;10.184;2022-08-07T11:32:08;4.22;;;2.90;;
16015;SDS011;8112;53.592;10.184;2022-08-07T11:37:16;2.80;;;2.40;;
16015;SDS011;8112;53.592;10.184;2022-08-07T11:42:40;4.93;;;3.10;;
16015;SDS011;8112;53.592;10.184;2022-08-07T11:48:03;2.83;;;2.63;;
16015;SDS011;8112;53.592;10.184;2022-08-07T11:53:30;2.72;;;2.50;;
16015;SDS011;8112;53.592;10.184;2022-08-07T11:58:46;3.08;;;2.65;;
16015;SDS011;8112;53.592;10.184;2022-08-07T12:03:57;3.28;;;2.83;;
16015;SDS011;8112;53.592;10.184;2022-08-07T12:09:15;3.40;;;2.80;;
16015;SDS011;8112;53.592;10.184;2022-08-07T12:14:23;3.77;;;3.33;;
16015;SDS011;8112;53.592;10.184;2022-08-07T12:19:30;4.03;;;3.63;;
16015;SDS011;8112;53.592;10.184;2022-08-07T12:24:46;3.90;;;3.10;;
16015;SDS011;8112;53.592;10.184;2022-08-07T12:30:10;3.10;;;2.80;;
16015;SDS011;8112;53.592;10.184;2022-08-07T12:35:12;3.40;;;3.10;;
16015;SDS011;8112;53.592;10.184;2022-08-07T12:40:17;2.90;;;2.60;;
16015;SDS011;8112;53.592;10.184;2022-08-07T12:45:25;2.70;;;2.50;;
16015;SDS011;8112;53.592;10.184;2022-08-07T12:50:33;4.50;;;2.60;;
16015;SDS011;8112;53.592;10.184;2022-08-07T12:55:39;3.77;;;3.10;;
16015;SDS011;8112;53.592;10.184;2022-08-07T13:00:47;3.07;;;2.77;;
16015;SDS011;8112;53.592;10.184;2022-08-07T13:05:57;4.90;;;3.33;;
16015;SDS011;8112;53.592;10.184;2022-08-07T13:11:24;3.00;;;2.60;;
16015;SDS011;8112;53.592;10.184;2022-08-07T13:16:39;2.93;;;2.60;;
16015;SDS011;8112;53.592;10.184;2022-08-07T13:21:51;2.90;;;2.47;;
16015;SDS011;8112;53.592;10.184;2022-08-07T13:27:07;3.63;;;3.07;;
16015;SDS011;8112;53.592;10.184;2022-08-07T13:32:17;4.07;;;2.97;;
16015;SDS011;8112;53.592;10.184;2022-08-07T13:37:31;3.37;;;3.00;;
16015;SDS011;8112;53.592;10.184;2022-08-07T13:42:42;3.70;;;2.77;;
16015;SDS011;8112;53.592;10.184;2022-08-07T13:47:51;4.67;;;3.33;;
16015;SDS011;8112;53.592;10.184;2022-08-07T13:52:57;3.53;;;3.20;;
16015;SDS011;8112;53.592;10.184;2022-08-07T13:58:08;4.33;;;3.20;;
16015;SDS011;8112;53.592;10.184;2022-08-07T14:03:30;4.13;;;3.03;;
16015;SDS011;8112;53.592;10.184;2022-08-07T14:08:42;3.57;;;3.03;;
16015;SDS011;8112;53.592;10.184;2022-08-07T14:13:49;3.37;;;3.07;;
16015;SDS011;8112;53.592;10.184;2022-08-07T14:18:59;3.47;;;3.10;;
16015;SDS011;8112;53.592;10.184;2022-08-07T14:24:05;4.20;;;2.67;;
16015;SDS011;8112;53.592;10.184;2022-08-07T14:29:14;3.97;;;3.60;;
16015;SDS011;8112;53.592;10.184;2022-08-07T14:34:22;3.30;;;3.00;;
16015;SDS011;8112;53.592;10.184;2022-08-07T14:39:27;3.50;;;3.07;;
16015;SDS011;8112;53.592;10.184;2022-08-07T14:44:42;6.27;;;3.00;;
16015;SDS011;8112;53.592;10.184;2022-08-07T14:49:49;6.93;;;3.27;;
16015;SDS011;8112;53.592;10.184;2022-08-07T15:00:03;3.07;;;2.80;;
16015;SDS011;8112;53.592;10.184;2022-08-07T15:05:12;3.60;;;3.23;;
16015;SDS011;8112;53.592;10.184;2022-08-07T15:10:18;3.17;;;2.87;;
16015;SDS011;8112;53.592;10.184;2022-08-07T15:15:28;3.37;;;2.73;;
16015;SDS011;8112;53.592;10.184;2022-08-07T15:20:39;3.03;;;2.67;;
16015;SDS011;8112;53.592;10.184;2022-08-07T15:25:44;2.73;;;2.40;;
16015;SDS011;8112;53.592;10.184;2022-08-07T15:30:50;2.80;;;2.43;;
16015;SDS011;8112;53.592;10.184;2022-08-07T15:35:56;3.13;;;2.77;;
16015;SDS011;8112;53.592;10.184;2022-08-07T15:41:03;3.60;;;2.93;;
16015;SDS011;8112;53.592;10.184;2022-08-07T15:46:16;4.07;;;2.70;;
16015;SDS011;8112;53.592;10.184;2022-08-07T15:51:25;2.75;;;2.30;;
16015;SDS011;8112;53.592;10.184;2022-08-07T15:56:29;2.83;;;2.63;;
16015;SDS011;8112;53.592;10.184;2022-08-07T16:01:47;4.65;;;2.50;;
16015;SDS011;8112;53.592;10.184;2022-08-07T16:06:55;3.20;;;2.87;;
16015;SDS011;8112;53.592;10.184;2022-08-07T16:12:02;5.07;;;2.80;;
16015;SDS011;8112;53.592;10.184;2022-08-07T16:17:16;3.13;;;2.80;;
16015;SDS011;8112;53.592;10.184;2022-08-07T16:22:38;3.47;;;2.87;;
16015;SDS011;8112;53.592;10.184;2022-08-07T16:27:49;2.63;;;2.43;;
16015;SDS011;8112;53.592;10.184;2022-08-07T16:33:00;3.57;;;2.73;;
16015;SDS011;8112;53.592;10.184;2022-08-07T16:38:14;3.27;;;2.67;;
16015;SDS011;8112;53.592;10.184;2022-08-07T16:43:40;4.20;;;3.20;;
16015;SDS011;8112;53.592;10.184;2022-08-07T16:48:56;4.13;;;2.90;;
16015;SDS011;8112;53.592;10.184;2022-08-07T17:05:17;3.90;;;2.90;;
16015;SDS011;8112;53.592;10.184;2022-08-07T17:10:44;4.27;;;2.80;;
16015;SDS011;8112;53.592;10.184;2022-08-07T17:15:50;3.03;;;2.70;;
16015;SDS011;8112;53.592;10.184;2022-08-07T17:20:59;3.43;;;2.83;;
16015;SDS011;8112;53.592;10.184;2022-08-07T17:26:07;2.77;;;2.40;;
16015;SDS011;8112;53.592;10.184;2022-08-07T17:31:17;3.57;;;2.80;;
16015;SDS011;8112;53.592;10.184;2022-08-07T17:36:25;2.47;;;2.27;;
16015;SDS011;8112;53.592;10.184;2022-08-07T17:41:37;3.40;;;2.57;;
16015;SDS011;8112;53.592;10.184;2022-08-07T17:46:49;2.60;;;2.30;;
16015;SDS011;8112;53.592;10.184;2022-08-07T17:51:55;2.90;;;2.50;;
16015;SDS011;8112;53.592;10.184;2022-08-07T17:57:05;3.83;;;2.63;;
16015;SDS011;8112;53.592;10.184;2022-08-07T18:02:16;2.93;;;2.20;;
16015;SDS011;8112;53.592;10.184;2022-08-07T18:07:27;3.30;;;2.80;;
16015;SDS011;8112;53.592;10.184;2022-08-07T18:12:47;2.50;;;2.30;;
16015;SDS011;8112;53.592;10.184;2022-08-07T18:18:07;5.33;;;2.57;;
16015;SDS011;8112;53.592;10.184;2022-08-07T18:23:13;2.53;;;2.33;;
16015;SDS011;8112;53.592;10.184;2022-08-07T18:28:38;3.37;;;2.40;;
16015;SDS011;8112;53.592;10.184;2022-08-07T18:39:22;3.37;;;2.70;;
16015;SDS011;8112;53.592;10.184;2022-08-07T18:44:38;4.03;;;2.37;;
16015;SDS011;8112;53.592;10.184;2022-08-07T18:49:51;4.30;;;2.60;;
16015;SDS011;8112;53.592;10.184;2022-08-07T18:55:10;4.37;;;2.20;;
16015;SDS011;8112;53.592;10.184;2022-08-07T19:00:32;3.87;;;2.90;;
16015;SDS011;8112;53.592;10.184;2022-08-07T19:05:43;3.43;;;2.40;;
16015;SDS011;8112;53.592;10.184;2022-08-07T19:10:52;2.97;;;2.73;;
16015;SDS011;8112;53.592;10.184;2022-08-07T19:16:01;3.27;;;2.87;;
16015;SDS011;8112;53.592;10.184;2022-08-07T19:21:15;4.23;;;2.80;;
16015;SDS011;8112;53.592;10.184;2022-08-07T19:26:41;2.97;;;2.67;;
16015;SDS011;8112;53.592;10.184;2022-08-07T19:31:47;3.00;;;2.67;;
16015;SDS011;8112;53.592;10.184;2022-08-07T19:36:52;3.20;;;2.53;;
16015;SDS011;8112;53.592;10.184;2022-08-07T19:41:57;3.43;;;3.10;;
16015;SDS011;8112;53.592;10.184;2022-08-07T19:47:04;3.70;;;3.40;;
16015;SDS011;8112;53.592;10.184;2022-08-07T19:52:09;3.57;;;3.13;;
16015;SDS011;8112;53.592;10.184;2022-08-07T19:57:15;3.80;;;3.37;;
16015;SDS011;8112;53.592;10.184;2022-08-07T20:02:28;3.87;;;3.20;;
16015;SDS011;8112;53.592;10.184;2022-08-07T20:07:32;4.03;;;3.20;;
16015;SDS011;8112;53.592;10.184;2022-08-07T20:12:36;3.80;;;3.13;;
16015;SDS011;8112;53.592;10.184;2022-08-07T20:17:42;4.07;;;3.40;;
16015;SDS011;8112;53.592;10.184;2022-08-07T20:22:47;3.50;;;3.10;;
16015;SDS011;8112;53.592;10.184;2022-08-07T20:27:50;5.67;;;2.83;;
16015;SDS011;8112;53.592;10.184;2022-08-07T20:32:57;3.13;;;2.77;;
16015;SDS011;8112;53.592;10.184;2022-08-07T20:38:01;4.13;;;3.47;;
16015;SDS011;8112;53.592;10.184;2022-08-07T20:43:07;3.73;;;3.20;;
16015;SDS011;8112;53.592;10.184;2022-08-07T20:48:11;3.40;;;3.10;;
16015;SDS011;8112;53.592;10.184;2022-08-07T20:53:20;3.50;;;3.20;;
16015;SDS011;8112;53.592;10.184;2022-08-07T20:58:24;4.80;;;3.60;;
16015;SDS011;8112;53.592;10.184;2022-08-07T21:03:31;5.57;;;3.20;;
16015;SDS011;8112;53.592;10.184;2022-08-07T21:08:37;3.93;;;3.57;;
16015;SDS011;8112;53.592;10.184;2022-08-07T21:13:43;3.40;;;3.10;;
16015;SDS011;8112;53.592;10.184;2022-08-07T21:18:49;4.83;;;3.40;;
16015;SDS011;8112;53.592;10.184;2022-08-07T21:23:55;3.23;;;2.93;;
16015;SDS011;8112;53.592;10.184;2022-08-07T21:29:04;4.20;;;3.43;;
16015;SDS011;8112;53.592;10.184;2022-08-07T21:34:23;4.70;;;3.50;;
16015;SDS011;8112;53.592;10.184;2022-08-07T21:39:32;4.03;;;3.67;;
16015;SDS011;8112;53.592;10.184;2022-08-07T21:44:40;4.43;;;3.50;;
16015;SDS011;8112;53.592;10.184;2022-08-07T21:49:48;4.70;;;3.70;;
16015;SDS011;8112;53.592;10.184;2022-08-07T21:54:59;4.17;;;3.43;;
16015;SDS011;8112;53.592;10.184;2022-08-07T22:00:10;6.10;;;4.03;;
16015;SDS011;8112;53.592;10.184;2022-08-07T22:05:18;6.20;;;4.20;;
16015;SDS011;8112;53.592;10.184;2022-08-07T22:10:22;4.03;;;3.63;;
16015;SDS011;8112;53.592;10.184;2022-08-07T22:15:30;4.63;;;4.23;;
16015;SDS011;8112;53.592;10.184;2022-08-07T22:20:43;6.43;;;4.30;;
